Time;durP1;ratioP1;P1;durP2;ratioP2;P2;SDS_P1;SDS_P2;PMS_P1;PMS_P2;Temp;Humidity;BMP_temperature;BMP_pressure;BME280_temperature;BME280_humidity;BME280_pressure;Samples;Min_cycle;Max_cycle;Signal;HPM_P1;HPM_P2
2022/10/18 00:01:11;;;;;;;65.18;46.50;;;18.60;1.00;;;;;;5052448;28;20437;-69
2022/10/18 00:03:37;;;;;;;67.60;49.20;;;18.60;1.00;;;;;;5052055;28;20025;-69
2022/10/18 00:06:04;;;;;;;63.75;45.90;;;18.60;1.00;;;;;;5047264;28;20028;-69
2022/10/18 00:08:30;;;;;;;62.28;45.20;;;18.50;1.00;;;;;;5053322;28;20025;-69
2022/10/18 00:10:55;;;;;;;66.32;47.75;;;18.50;1.00;;;;;;5051478;28;20028;-69
2022/10/18 00:13:22;;;;;;;67.35;45.95;;;18.50;1.00;;;;;;5051193;28;20041;-69
2022/10/18 00:15:52;;;;;;;60.25;46.22;;;18.50;1.00;;;;;;5051569;28;20064;-69
2022/10/18 00:18:18;;;;;;;63.90;45.92;;;18.50;1.00;;;;;;5038262;28;20025;-69
2022/10/18 00:20:44;;;;;;;63.63;46.88;;;18.40;1.00;;;;;;5038723;28;20021;-69
2022/10/18 00:23:10;;;;;;;59.78;43.65;;;18.50;1.00;;;;;;5053349;28;20100;-69
2022/10/18 00:25:35;;;;;;;67.55;46.53;;;18.50;1.00;;;;;;5065475;28;20026;-69
2022/10/18 00:28:01;;;;;;;65.00;45.72;;;18.40;1.00;;;;;;5053127;28;20052;-69
2022/10/18 00:30:26;;;;;;;61.45;44.15;;;18.40;1.00;;;;;;5052932;28;20113;-69
2022/10/18 00:32:52;;;;;;;61.30;43.15;;;18.40;1.00;;;;;;5052590;28;20032;-69
2022/10/18 00:35:17;;;;;;;63.25;44.13;;;18.40;1.00;;;;;;5052778;28;20032;-68
2022/10/18 00:37:43;;;;;;;66.85;44.17;;;18.40;1.00;;;;;;5039238;28;20053;-69
2022/10/18 00:40:09;;;;;;;60.17;44.15;;;18.40;1.00;;;;;;5038878;28;20424;-69
2022/10/18 00:42:36;;;;;;;58.10;43.95;;;18.40;1.00;;;;;;5045181;28;20125;-69
2022/10/18 00:45:17;;;;;;;60.35;44.38;;;18.40;1.00;;;;;;5052827;28;20025;-69
2022/10/18 00:47:47;;;;;;;56.95;44.40;;;18.30;1.00;;;;;;5052154;28;20025;-69
2022/10/18 00:50:13;;;;;;;59.80;43.13;;;18.30;1.00;;;;;;5052766;28;20501;-69
2022/10/18 00:52:42;;;;;;;58.55;42.80;;;18.30;1.00;;;;;;5051969;28;20052;-69
2022/10/18 00:55:09;;;;;;;60.30;43.28;;;18.30;1.00;;;;;;5046458;28;20103;-69
2022/10/18 00:57:36;;;;;;;54.95;42.33;;;18.30;1.00;;;;;;5050241;28;20029;-69
2022/10/18 01:00:06;;;;;;;60.08;43.60;;;18.30;1.00;;;;;;5038698;28;20471;-69
2022/10/18 01:02:32;;;;;;;62.08;42.67;;;18.30;1.00;;;;;;5047393;28;20116;-69
2022/10/18 01:04:57;;;;;;;60.30;45.15;;;18.30;1.00;;;;;;5042915;28;20167;-69
2022/10/18 01:07:50;;;;;;;61.90;41.63;;;18.30;1.00;;;;;;5052364;28;20021;-69
2022/10/18 01:10:41;;;;;;;56.03;42.38;;;18.30;1.00;;;;;;5043675;28;20059;-69
2022/10/18 01:13:37;;;;;;;56.22;43.45;;;18.30;1.00;;;;;;5040299;28;20029;-68
2022/10/18 01:16:17;;;;;;;64.90;44.88;;;18.30;1.00;;;;;;5048991;28;20029;-69
2022/10/18 01:19:05;;;;;;;60.67;43.20;;;18.30;1.00;;;;;;5053101;28;20029;-69
2022/10/18 01:21:43;;;;;;;60.97;43.42;;;18.30;1.00;;;;;;5055078;28;20033;-69
2022/10/18 01:24:36;;;;;;;59.65;42.92;;;18.30;1.00;;;;;;5052352;28;20490;-69
2022/10/18 01:27:19;;;;;;;56.80;42.88;;;18.30;1.00;;;;;;5055315;28;20017;-69
2022/10/18 01:30:06;;;;;;;57.92;42.45;;;18.30;1.00;;;;;;5055997;28;20037;-69
2022/10/18 01:32:37;;;;;;;52.45;40.90;;;18.30;1.00;;;;;;5049128;28;20029;-69
2022/10/18 01:35:09;;;;;;;56.28;42.13;;;18.30;1.00;;;;;;5044419;28;20037;-69
2022/10/18 01:37:37;;;;;;;55.42;40.13;;;18.30;1.00;;;;;;5051795;28;20048;-70
2022/10/18 01:40:05;;;;;;;58.90;42.47;;;18.20;1.00;;;;;;5056259;28;20106;-69
2022/10/18 01:42:31;;;;;;;59.05;43.33;;;18.20;1.00;;;;;;5051512;28;20025;-69
2022/10/18 01:44:59;;;;;;;58.00;42.30;;;18.20;1.00;;;;;;5052518;28;20021;-69
2022/10/18 01:47:25;;;;;;;56.88;42.92;;;18.20;1.00;;;;;;5048180;28;20065;-69
2022/10/18 01:50:04;;;;;;;54.50;40.78;;;18.20;1.00;;;;;;5036018;28;20025;-69
2022/10/18 01:52:30;;;;;;;58.75;42.33;;;18.20;1.00;;;;;;5038432;28;20041;-68
2022/10/18 01:54:57;;;;;;;54.35;40.55;;;18.20;1.00;;;;;;5054811;28;20107;-68
2022/10/18 01:57:52;;;;;;;54.10;40.65;;;18.20;1.00;;;;;;5054566;28;20029;-68
2022/10/18 02:00:30;;;;;;;54.92;41.05;;;18.20;1.00;;;;;;5035871;28;20585;-68
2022/10/18 02:03:02;;;;;;;55.67;42.03;;;18.20;1.00;;;;;;5048908;28;20033;-68
2022/10/18 02:05:30;;;;;;;52.38;40.13;;;18.10;1.00;;;;;;5055541;28;20021;-69
2022/10/18 02:08:03;;;;;;;51.53;39.30;;;18.20;1.00;;;;;;5054776;28;20033;-69
2022/10/18 02:10:40;;;;;;;54.80;40.72;;;18.10;1.00;;;;;;5055687;28;20025;-68
2022/10/18 02:13:07;;;;;;;54.85;40.60;;;18.10;1.00;;;;;;5044920;28;20437;-68
2022/10/18 02:15:37;;;;;;;51.92;39.83;;;18.10;1.00;;;;;;5035796;28;20037;-69
2022/10/18 02:18:11;;;;;;;51.42;39.90;;;18.10;1.00;;;;;;5045187;28;20113;-68
2022/10/18 02:20:38;;;;;;;49.28;38.92;;;18.10;1.00;;;;;;5044610;28;20060;-69
2022/10/18 02:23:07;;;;;;;52.40;39.08;;;18.10;1.00;;;;;;5048609;28;20108;-69
2022/10/18 02:25:34;;;;;;;57.70;41.72;;;18.10;1.00;;;;;;5043270;28;20067;-69
2022/10/18 02:28:02;;;;;;;59.20;41.85;;;18.00;1.00;;;;;;5054472;28;20028;-69
2022/10/18 02:30:36;;;;;;;52.65;39.35;;;18.00;1.00;;;;;;5041592;28;20025;-69
2022/10/18 02:33:13;;;;;;;56.05;41.55;;;18.00;1.00;;;;;;5059115;28;20079;-68
2022/10/18 02:35:45;;;;;;;55.17;39.60;;;18.00;1.00;;;;;;5034201;28;20082;-69
2022/10/18 02:38:14;;;;;;;51.65;38.30;;;18.00;1.00;;;;;;5048105;28;20029;-69
2022/10/18 02:40:39;;;;;;;51.17;39.92;;;18.00;1.00;;;;;;5035165;28;20498;-69
2022/10/18 02:43:06;;;;;;;55.67;39.90;;;18.00;1.00;;;;;;5041029;28;20025;-69
2022/10/18 02:45:32;;;;;;;53.28;40.40;;;18.00;1.00;;;;;;5054853;28;20025;-69
2022/10/18 02:47:58;;;;;;;55.45;40.45;;;18.00;1.00;;;;;;5051094;28;20029;-69
2022/10/18 02:50:23;;;;;;;52.75;39.50;;;17.90;1.00;;;;;;5053510;28;20453;-69
2022/10/18 02:52:49;;;;;;;56.80;40.95;;;17.90;1.00;;;;;;5039020;28;20071;-70
2022/10/18 02:55:15;;;;;;;56.00;37.97;;;17.90;1.00;;;;;;5041666;28;20492;-69
2022/10/18 02:57:40;;;;;;;57.30;40.22;;;17.90;1.00;;;;;;5050578;28;20032;-69
2022/10/18 03:00:06;;;;;;;50.25;39.40;;;17.90;1.00;;;;;;5043457;28;20391;-69
2022/10/18 03:02:32;;;;;;;54.72;40.17;;;17.90;1.00;;;;;;5047787;28;20032;-69
2022/10/18 03:04:58;;;;;;;56.35;40.08;;;17.90;1.00;;;;;;5043964;28;20037;-69
2022/10/18 03:07:23;;;;;;;53.13;41.47;;;17.90;1.00;;;;;;5053806;28;20108;-68
2022/10/18 03:09:49;;;;;;;56.17;41.78;;;17.90;1.00;;;;;;5040550;28;20056;-68
2022/10/18 03:12:15;;;;;;;54.10;40.17;;;17.90;1.00;;;;;;5054454;28;20116;-68
2022/10/18 03:14:40;;;;;;;58.65;41.97;;;17.90;1.00;;;;;;5047832;28;20391;-68
2022/10/18 03:17:06;;;;;;;67.68;45.03;;;17.90;1.00;;;;;;5034019;28;20382;-70
2022/10/18 03:19:31;;;;;;;62.03;45.28;;;17.90;1.00;;;;;;5051413;28;20021;-69
2022/10/18 03:21:57;;;;;;;63.85;46.63;;;17.80;1.00;;;;;;5045086;28;20501;-69
2022/10/18 03:24:22;;;;;;;65.18;46.70;;;17.90;1.00;;;;;;5035801;28;20049;-69
2022/10/18 03:26:48;;;;;;;63.78;43.08;;;17.90;1.00;;;;;;5054177;28;20021;-69
2022/10/18 03:29:14;;;;;;;61.50;44.92;;;17.80;1.00;;;;;;5053600;28;20043;-69
2022/10/18 03:31:39;;;;;;;66.88;45.63;;;17.80;1.00;;;;;;5054189;28;20047;-70
2022/10/18 03:34:05;;;;;;;59.70;43.15;;;17.80;1.00;;;;;;5042411;28;20072;-69
2022/10/18 03:36:32;;;;;;;58.05;43.97;;;17.80;1.00;;;;;;5050807;28;20025;-69
2022/10/18 03:38:58;;;;;;;58.40;42.65;;;17.80;1.00;;;;;;5043415;28;20112;-69
2022/10/18 03:41:23;;;;;;;58.60;41.88;;;17.80;1.00;;;;;;5047983;28;20471;-69
2022/10/18 03:43:49;;;;;;;58.63;43.00;;;17.80;1.00;;;;;;5034013;28;20033;-69
2022/10/18 03:46:14;;;;;;;60.13;43.35;;;17.80;1.00;;;;;;5046416;28;20056;-69
2022/10/18 03:48:40;;;;;;;55.63;42.03;;;17.80;1.00;;;;;;5051573;28;20052;-69
2022/10/18 03:51:06;;;;;;;58.75;43.63;;;17.80;1.00;;;;;;5053530;28;20056;-69
2022/10/18 03:53:31;;;;;;;55.85;42.58;;;17.80;1.00;;;;;;5052658;28;20170;-69
2022/10/18 03:55:57;;;;;;;59.15;42.90;;;17.80;1.00;;;;;;5053488;28;20083;-69
2022/10/18 03:58:23;;;;;;;57.55;43.15;;;17.80;1.00;;;;;;5051948;28;20036;-69
2022/10/18 04:00:53;;;;;;;59.70;41.67;;;17.80;1.00;;;;;;5046115;28;20070;-69
2022/10/18 04:03:20;;;;;;;51.50;38.80;;;17.80;1.00;;;;;;5044133;28;20021;-69
2022/10/18 04:05:47;;;;;;;54.35;39.95;;;17.80;1.00;;;;;;5041561;28;20033;-69
2022/10/18 04:11:34;;;;;;;55.22;42.30;;;17.70;1.00;;;;;;5051008;28;20639;-69
2022/10/18 04:14:00;;;;;;;51.05;38.97;;;17.70;1.00;;;;;;5038374;28;20080;-69
2022/10/18 04:16:26;;;;;;;54.10;39.20;;;17.70;1.00;;;;;;5052382;28;20559;-69
2022/10/18 04:18:52;;;;;;;54.78;37.97;;;17.60;1.00;;;;;;5052041;28;20064;-69
2022/10/18 04:21:17;;;;;;;48.35;38.05;;;17.70;1.00;;;;;;5053099;28;20087;-69
2022/10/18 04:23:45;;;;;;;48.40;35.97;;;17.70;1.00;;;;;;5052126;28;20025;-69
2022/10/18 04:26:11;;;;;;;50.40;38.13;;;17.70;1.00;;;;;;5053259;28;20025;-69
2022/10/18 04:28:38;;;;;;;50.28;36.60;;;17.60;1.00;;;;;;5055823;28;20059;-69
2022/10/18 04:31:04;;;;;;;48.95;37.75;;;17.60;1.00;;;;;;5051817;28;20026;-70
2022/10/18 04:33:30;;;;;;;49.30;36.80;;;17.60;1.00;;;;;;5051971;28;20096;-69
2022/10/18 04:35:56;;;;;;;46.88;37.35;;;17.60;1.00;;;;;;5051083;28;20171;-69
2022/10/18 04:38:21;;;;;;;48.05;35.28;;;17.60;1.00;;;;;;5042615;28;20194;-69
2022/10/18 04:40:47;;;;;;;45.33;35.10;;;17.60;1.00;;;;;;5043594;28;20025;-69
2022/10/18 04:43:12;;;;;;;48.90;35.42;;;17.50;1.00;;;;;;5055943;28;20021;-69
2022/10/18 04:45:38;;;;;;;46.22;36.20;;;17.50;1.00;;;;;;5052867;28;20094;-70
2022/10/18 04:48:04;;;;;;;48.75;36.40;;;17.50;1.00;;;;;;5051868;28;20020;-69
2022/10/18 04:50:29;;;;;;;46.58;34.88;;;17.50;1.00;;;;;;5052895;28;20100;-70
2022/10/18 04:52:55;;;;;;;47.08;36.20;;;17.50;1.00;;;;;;5051815;28;20383;-69
2022/10/18 04:55:21;;;;;;;50.03;36.33;;;17.50;1.00;;;;;;5047403;28;20041;-69
2022/10/18 04:57:46;;;;;;;46.75;35.53;;;17.50;1.00;;;;;;5050122;28;20096;-69
2022/10/18 05:00:12;;;;;;;40.30;33.90;;;17.50;1.00;;;;;;5051963;28;20108;-69
2022/10/18 05:02:38;;;;;;;46.10;34.92;;;17.50;1.00;;;;;;5050395;28;20051;-69
2022/10/18 05:05:05;;;;;;;50.58;36.60;;;17.40;1.00;;;;;;5046381;28;20025;-69
2022/10/18 05:07:30;;;;;;;46.55;33.78;;;17.50;1.00;;;;;;5051468;28;20021;-69
2022/10/18 05:09:56;;;;;;;50.47;36.00;;;17.50;1.00;;;;;;5051332;28;20078;-69
2022/10/18 05:12:21;;;;;;;46.88;36.85;;;17.50;1.00;;;;;;5052524;28;20032;-69
2022/10/18 05:14:47;;;;;;;48.42;35.35;;;17.50;1.00;;;;;;5051312;28;20052;-69
2022/10/18 05:17:13;;;;;;;51.00;35.97;;;17.50;1.00;;;;;;5052486;28;20182;-69
2022/10/18 05:19:38;;;;;;;52.25;36.15;;;17.50;1.00;;;;;;5042082;28;20029;-69
2022/10/18 05:22:04;;;;;;;47.78;34.88;;;17.50;1.00;;;;;;5051782;28;20116;-69
2022/10/18 05:24:30;;;;;;;45.30;35.08;;;17.50;1.00;;;;;;5051214;28;20152;-69
2022/10/18 05:26:56;;;;;;;47.03;35.55;;;17.50;1.00;;;;;;5052755;28;20096;-69
2022/10/18 05:29:21;;;;;;;43.30;32.10;;;17.50;1.00;;;;;;5040628;28;20033;-69
2022/10/18 05:31:48;;;;;;;53.00;36.47;;;17.50;1.00;;;;;;5052529;28;20021;-69
2022/10/18 05:34:14;;;;;;;43.40;34.30;;;17.50;1.00;;;;;;5051533;28;20116;-69
2022/10/18 05:36:39;;;;;;;46.67;34.65;;;17.50;1.00;;;;;;5044896;28;20112;-69
2022/10/18 05:39:05;;;;;;;48.58;35.40;;;17.50;1.00;;;;;;5045542;28;20071;-69
2022/10/18 05:41:31;;;;;;;43.83;34.35;;;17.50;1.00;;;;;;5054607;28;20398;-69
2022/10/18 05:43:57;;;;;;;44.83;33.00;;;17.50;1.00;;;;;;5070669;28;20047;-69
2022/10/18 05:46:22;;;;;;;43.22;34.58;;;17.60;1.00;;;;;;5055854;28;20025;-69
2022/10/18 05:48:50;;;;;;;42.22;31.15;;;17.50;1.00;;;;;;5054178;28;20029;-69
2022/10/18 05:51:16;;;;;;;43.20;32.50;;;17.50;1.00;;;;;;5055852;28;20482;-69
2022/10/18 05:53:42;;;;;;;45.03;32.30;;;17.50;1.00;;;;;;5055305;28;20052;-69
2022/10/18 05:56:10;;;;;;;46.65;32.53;;;17.50;1.00;;;;;;5055928;28;20435;-70
2022/10/18 05:58:36;;;;;;;40.90;32.13;;;17.50;1.00;;;;;;5054583;28;20021;-69
2022/10/18 06:01:04;;;;;;;40.33;32.13;;;17.50;1.00;;;;;;5055854;28;20036;-69
2022/10/18 06:03:30;;;;;;;39.65;29.85;;;17.50;1.00;;;;;;5050074;28;20033;-69
2022/10/18 06:06:00;;;;;;;41.05;30.73;;;17.50;1.00;;;;;;5055662;28;20021;-69
2022/10/18 06:08:26;;;;;;;45.83;32.60;;;17.50;1.00;;;;;;5055363;28;20037;-69
2022/10/18 06:10:51;;;;;;;41.85;32.22;;;17.50;1.00;;;;;;5055501;28;20027;-69
2022/10/18 06:13:17;;;;;;;40.85;31.20;;;17.40;1.00;;;;;;5046558;28;20041;-69
2022/10/18 06:15:43;;;;;;;42.70;33.67;;;17.50;1.00;;;;;;5052158;28;20086;-69
2022/10/18 06:18:08;;;;;;;40.83;31.25;;;17.50;1.00;;;;;;5059169;28;20029;-69
2022/10/18 06:20:34;;;;;;;47.22;32.78;;;17.50;1.00;;;;;;5055454;28;20514;-69
2022/10/18 06:22:59;;;;;;;41.67;32.15;;;17.50;1.00;;;;;;5054526;28;20045;-68
2022/10/18 06:25:25;;;;;;;42.15;32.00;;;17.50;1.00;;;;;;5055446;28;20098;-69
2022/10/18 06:27:50;;;;;;;42.13;31.05;;;17.50;1.00;;;;;;5054924;28;20445;-68
2022/10/18 06:30:16;;;;;;;42.97;31.35;;;17.50;1.00;;;;;;5046583;28;20028;-68
2022/10/18 06:32:42;;;;;;;42.00;30.88;;;17.50;1.00;;;;;;5055364;28;20045;-68
2022/10/18 06:35:08;;;;;;;39.90;32.50;;;17.50;1.00;;;;;;5053410;28;20392;-68
2022/10/18 06:37:34;;;;;;;42.10;31.63;;;17.50;1.00;;;;;;5055127;28;20056;-68
2022/10/18 06:39:59;;;;;;;43.63;32.28;;;17.50;1.00;;;;;;5054377;28;20052;-68
2022/10/18 06:42:25;;;;;;;41.00;31.90;;;17.50;1.00;;;;;;5055263;28;20446;-68
2022/10/18 06:44:51;;;;;;;37.75;29.63;;;17.50;1.00;;;;;;5057045;28;20360;-68
2022/10/18 06:47:16;;;;;;;37.72;29.15;;;17.50;1.00;;;;;;5055233;28;20021;-68
2022/10/18 06:49:42;;;;;;;41.20;29.92;;;17.50;1.00;;;;;;5053711;28;20074;-68
2022/10/18 06:52:07;;;;;;;38.88;28.13;;;17.50;1.00;;;;;;5054240;28;20025;-68
2022/10/18 06:54:33;;;;;;;38.28;28.27;;;17.60;1.00;;;;;;5053568;28;20513;-68
2022/10/18 06:57:01;;;;;;;33.00;27.80;;;17.60;1.00;;;;;;5049115;28;20036;-69
2022/10/18 06:59:27;;;;;;;41.40;30.10;;;17.60;1.00;;;;;;5050500;28;21957;-68
2022/10/18 07:01:52;;;;;;;41.80;28.70;;;17.50;1.00;;;;;;5049293;28;20565;-69
2022/10/18 07:04:18;;;;;;;40.25;30.13;;;17.50;1.00;;;;;;5048644;28;20036;-68
2022/10/18 07:06:43;;;;;;;37.20;29.10;;;17.50;1.00;;;;;;5047893;28;20035;-68
2022/10/18 07:09:09;;;;;;;41.85;30.05;;;17.50;1.00;;;;;;5049808;28;20057;-69
2022/10/18 07:11:35;;;;;;;40.70;29.02;;;17.50;1.00;;;;;;5039261;28;20471;-68
2022/10/18 07:14:03;;;;;;;35.67;28.80;;;17.60;1.00;;;;;;5037228;28;20046;-68
2022/10/18 07:16:30;;;;;;;41.17;29.63;;;17.70;1.00;;;;;;5054321;28;20036;-69
2022/10/18 07:18:55;;;;;;;39.38;28.13;;;17.70;1.00;;;;;;5051339;28;20029;-68
2022/10/18 07:21:23;;;;;;;38.72;29.25;;;17.70;1.00;;;;;;5054185;28;20029;-69
2022/10/18 07:23:49;;;;;;;35.67;27.38;;;17.80;1.00;;;;;;5052357;28;20479;-69
2022/10/18 07:26:18;;;;;;;35.92;28.02;;;17.80;1.00;;;;;;5054162;28;20048;-69
2022/10/18 07:28:47;;;;;;;35.50;27.60;;;17.70;1.00;;;;;;5052636;28;20021;-69
2022/10/18 07:31:13;;;;;;;38.88;29.05;;;17.80;1.00;;;;;;5053778;28;20074;-68
2022/10/18 07:33:39;;;;;;;38.58;27.42;;;17.80;1.00;;;;;;5061152;28;20029;-68
2022/10/18 07:36:07;;;;;;;40.03;28.80;;;17.90;1.00;;;;;;5053092;28;20037;-68
2022/10/18 07:38:33;;;;;;;36.28;28.75;;;17.90;1.00;;;;;;5054023;28;20111;-68
2022/10/18 07:41:00;;;;;;;39.67;29.20;;;17.80;1.00;;;;;;5051166;28;20029;-68
2022/10/18 07:43:27;;;;;;;36.08;29.38;;;17.90;1.00;;;;;;5054085;28;20047;-68
2022/10/18 07:45:58;;;;;;;38.67;29.10;;;17.90;1.00;;;;;;5052796;28;20033;-68
2022/10/18 07:48:25;;;;;;;36.38;27.48;;;17.90;1.00;;;;;;5053996;28;20397;-69
2022/10/18 07:50:51;;;;;;;33.95;26.98;;;17.90;1.00;;;;;;5049548;28;20040;-68
2022/10/18 07:53:16;;;;;;;34.53;27.27;;;17.90;1.00;;;;;;5052236;28;20021;-68
2022/10/18 07:55:43;;;;;;;36.97;29.30;;;18.00;1.00;;;;;;5051315;28;20044;-68
2022/10/18 07:58:12;;;;;;;38.50;29.33;;;18.00;1.00;;;;;;5053853;28;20083;-69
2022/10/18 08:00:38;;;;;;;43.55;30.85;;;18.10;1.00;;;;;;5052443;28;20036;-68
2022/10/18 08:03:04;;;;;;;39.25;29.80;;;18.10;1.00;;;;;;5053287;28;20029;-68
2022/10/18 08:05:29;;;;;;;43.85;31.80;;;18.10;1.00;;;;;;5042429;28;20116;-68
2022/10/18 08:07:55;;;;;;;41.47;30.50;;;18.10;1.00;;;;;;5053015;28;20120;-68
2022/10/18 08:10:23;;;;;;;39.55;31.02;;;18.20;1.00;;;;;;5041619;28;20021;-68
2022/10/18 08:12:49;;;;;;;41.08;29.42;;;18.20;1.00;;;;;;5047472;28;20013;-68
2022/10/18 08:15:15;;;;;;;43.45;30.63;;;18.20;1.00;;;;;;5056562;28;20453;-68
2022/10/18 08:17:42;;;;;;;41.28;30.98;;;18.30;1.00;;;;;;5052369;28;20077;-68
2022/10/18 08:20:08;;;;;;;38.35;30.80;;;18.30;1.00;;;;;;5052376;28;20021;-68
2022/10/18 08:22:34;;;;;;;39.85;29.42;;;18.30;1.00;;;;;;5052996;28;20021;-67
2022/10/18 08:24:59;;;;;;;38.90;30.30;;;18.30;1.00;;;;;;5052337;28;20035;-68
2022/10/18 08:27:25;;;;;;;37.85;27.35;;;18.30;1.00;;;;;;5051515;28;20027;-68
2022/10/18 08:29:51;;;;;;;43.05;28.23;;;18.40;1.00;;;;;;5040316;28;20028;-69
2022/10/18 08:32:17;;;;;;;33.60;25.83;;;18.40;1.00;;;;;;5053103;28;20471;-68
2022/10/18 08:34:43;;;;;;;33.97;27.27;;;18.40;1.00;;;;;;5050799;28;20039;-68
2022/10/18 08:37:09;;;;;;;31.73;27.20;;;18.40;1.00;;;;;;5053245;28;20024;-69
2022/10/18 08:39:34;;;;;;;30.52;26.13;;;18.40;1.00;;;;;;5051139;28;20027;-68
2022/10/18 08:45:22;;;;;;;29.92;24.67;;;18.50;1.00;;;;;;5046229;28;20035;-68
2022/10/18 08:47:50;;;;;;;34.58;25.35;;;18.50;1.00;;;;;;5053050;28;20021;-68
2022/10/18 08:50:37;;;;;;;30.48;24.55;;;18.60;1.00;;;;;;5052373;28;20395;-68
2022/10/18 08:53:06;;;;;;;31.73;25.20;;;18.60;1.00;;;;;;5052758;28;20474;-68
2022/10/18 08:55:46;;;;;;;28.23;23.63;;;18.60;1.00;;;;;;5051695;28;20048;-68
2022/10/18 08:58:16;;;;;;;31.70;25.67;;;18.60;1.00;;;;;;5053052;28;20025;-68
2022/10/18 09:00:49;;;;;;;30.02;24.15;;;18.70;1.00;;;;;;5045154;28;20103;-68
2022/10/18 09:04:04;;;;;;;33.60;25.67;;;18.70;1.00;;;;;;5051989;28;20029;-68
2022/10/18 09:07:05;;;;;;;31.95;24.60;;;18.80;1.00;;;;;;5041455;28;20044;-68
2022/10/18 09:09:45;;;;;;;25.95;22.98;;;18.80;1.00;;;;;;5033231;28;20435;-67
2022/10/18 09:12:47;;;;;;;30.08;25.50;;;18.80;1.00;;;;;;5052647;28;20502;-67
2022/10/18 09:15:23;;;;;;;27.45;22.08;;;18.90;1.00;;;;;;5051872;28;20049;-68
2022/10/18 09:18:10;;;;;;;29.75;23.20;;;18.90;1.00;;;;;;5043297;28;20347;-68
2022/10/18 09:20:58;;;;;;;30.50;22.67;;;19.00;1.00;;;;;;5047788;28;20063;-68
2022/10/18 09:24:07;;;;;;;27.40;21.98;;;19.00;1.00;;;;;;5056979;28;20379;-67
2022/10/18 09:26:44;;;;;;;29.00;21.25;;;19.10;1.00;;;;;;5004391;28;20030;-67
2022/10/18 09:29:15;;;;;;;31.00;22.73;;;19.10;1.00;;;;;;5050004;28;20041;-67
2022/10/18 09:31:56;;;;;;;33.67;23.83;;;19.20;1.00;;;;;;5055471;28;20037;-67
2022/10/18 09:34:36;;;;;;;33.75;22.55;;;19.20;1.00;;;;;;5055728;28;20036;-67
2022/10/18 09:37:03;;;;;;;31.38;23.75;;;19.40;1.00;;;;;;5046805;28;20123;-68
2022/10/18 09:39:36;;;;;;;35.28;24.15;;;19.30;1.00;;;;;;5055231;28;20025;-67
2022/10/18 09:42:25;;;;;;;30.85;24.35;;;19.30;1.00;;;;;;5046192;28;20074;-67
2022/10/18 09:44:57;;;;;;;30.00;23.52;;;19.40;1.00;;;;;;5047658;28;20063;-67
2022/10/18 09:47:33;;;;;;;27.83;22.58;;;19.50;1.00;;;;;;5045031;28;20390;-68
2022/10/18 09:50:05;;;;;;;26.70;22.55;;;19.40;1.00;;;;;;5038581;28;20036;-67
2022/10/18 09:52:40;;;;;;;29.80;24.27;;;19.50;1.00;;;;;;5044952;28;20572;-68
2022/10/18 09:55:20;;;;;;;31.20;24.45;;;19.60;1.00;;;;;;5053418;28;20040;-67
2022/10/18 09:58:06;;;;;;;30.45;24.02;;;19.60;1.00;;;;;;5046686;28;20521;-67
2022/10/18 10:00:37;;;;;;;34.50;26.02;;;19.60;1.00;;;;;;5053381;28;20058;-67
2022/10/18 10:03:10;;;;;;;33.08;24.67;;;19.70;1.00;;;;;;5062142;28;20036;-67
2022/10/18 10:05:36;;;;;;;34.90;27.65;;;19.70;1.00;;;;;;5053529;28;20082;-67
2022/10/18 10:08:03;;;;;;;32.88;25.65;;;19.80;1.00;;;;;;5056065;28;20055;-67
2022/10/18 10:10:30;;;;;;;34.15;27.92;;;20.00;1.00;;;;;;5054748;28;20064;-67
2022/10/18 10:13:01;;;;;;;37.35;27.58;;;19.90;1.00;;;;;;5054525;28;20082;-67
2022/10/18 10:15:28;;;;;;;35.05;27.73;;;20.00;1.00;;;;;;5054140;28;20047;-67
2022/10/18 10:17:56;;;;;;;32.60;27.27;;;20.00;1.00;;;;;;5055047;28;20047;-67
2022/10/18 10:20:30;;;;;;;33.45;27.63;;;20.00;1.00;;;;;;5054591;28;20029;-67
2022/10/18 10:23:11;;;;;;;38.80;28.70;;;20.10;1.00;;;;;;5042300;28;20056;-67
2022/10/18 10:25:37;;;;;;;37.60;28.70;;;20.10;1.00;;;;;;5054372;28;20378;-67
2022/10/18 10:28:06;;;;;;;31.58;27.10;;;20.10;1.00;;;;;;5053989;28;20021;-67
2022/10/18 10:30:34;;;;;;;37.63;31.05;;;20.20;1.00;;;;;;5054200;28;20021;-67
2022/10/18 10:33:01;;;;;;;41.20;30.48;;;20.30;1.00;;;;;;5055277;28;20485;-67
2022/10/18 10:35:37;;;;;;;41.00;29.58;;;20.40;1.00;;;;;;5052107;28;20044;-68
2022/10/18 10:38:04;;;;;;;35.53;27.20;;;20.40;1.00;;;;;;5054139;28;20462;-67
2022/10/18 10:40:45;;;;;;;33.95;28.45;;;20.40;1.00;;;;;;5052155;28;20027;-67
2022/10/18 10:43:32;;;;;;;41.78;32.20;;;20.40;1.00;;;;;;5046809;28;20372;-67
2022/10/18 10:45:58;;;;;;;41.08;32.35;;;20.50;1.00;;;;;;5053231;28;20813;-67
2022/10/18 10:48:25;;;;;;;44.85;32.42;;;20.50;1.00;;;;;;5055178;28;20023;-67
2022/10/18 10:51:05;;;;;;;43.58;33.88;;;20.50;1.00;;;;;;5053827;28;20425;-67
2022/10/18 10:53:38;;;;;;;44.63;35.75;;;20.60;1.00;;;;;;5041245;28;20013;-67
2022/10/18 10:56:06;;;;;;;48.70;38.13;;;20.70;1.00;;;;;;5052827;28;20083;-67
2022/10/18 10:58:39;;;;;;;52.40;38.50;;;20.80;1.00;;;;;;5052909;28;20052;-67
2022/10/18 11:01:17;;;;;;;51.38;38.97;;;20.80;1.00;;;;;;5048100;28;20025;-67
2022/10/18 11:03:48;;;;;;;51.63;39.00;;;20.80;1.00;;;;;;5049822;28;20021;-67
2022/10/18 11:06:46;;;;;;;55.60;42.13;;;21.00;1.00;;;;;;5046352;28;20139;-67
2022/10/18 11:09:29;;;;;;;55.08;40.47;;;21.00;1.00;;;;;;5054116;28;20013;-67
2022/10/18 11:12:02;;;;;;;56.15;42.25;;;21.00;1.00;;;;;;5040951;28;20534;-67
2022/10/18 11:14:37;;;;;;;60.80;44.92;;;21.00;1.00;;;;;;5034524;28;20048;-67
2022/10/18 11:17:06;;;;;;;60.47;43.80;;;21.00;1.00;;;;;;5034503;28;20041;-67
2022/10/18 11:19:36;;;;;;;55.72;42.05;;;21.10;1.00;;;;;;5054727;28;20033;-67
2022/10/18 11:22:05;;;;;;;53.05;41.45;;;21.10;1.00;;;;;;5053376;28;20068;-67
2022/10/18 11:24:32;;;;;;;53.50;39.78;;;21.10;1.00;;;;;;5054202;28;20056;-67
2022/10/18 11:27:22;;;;;;;56.53;40.80;;;21.20;1.00;;;;;;5052226;28;20033;-67
2022/10/18 11:30:02;;;;;;;53.13;40.58;;;21.20;1.00;;;;;;5052183;28;20041;-67
2022/10/18 11:32:45;;;;;;;52.67;38.58;;;21.20;1.00;;;;;;5036631;28;20060;-67
2022/10/18 11:35:34;;;;;;;49.33;37.50;;;21.30;1.00;;;;;;5054515;28;20447;-67
2022/10/18 11:38:38;;;;;;;47.65;37.45;;;21.40;1.00;;;;;;5051655;28;20029;-68
2022/10/18 11:41:29;;;;;;;46.77;37.47;;;21.40;1.00;;;;;;5040693;28;20497;-67
2022/10/18 11:44:01;;;;;;;51.47;37.53;;;21.40;1.00;;;;;;5049365;28;20071;-67
2022/10/18 11:46:41;;;;;;;49.65;37.13;;;21.40;1.00;;;;;;5062025;28;20029;-67
2022/10/18 11:49:10;;;;;;;44.55;35.22;;;21.40;1.00;;;;;;5053968;28;20021;-67
2022/10/18 11:51:48;;;;;;;50.22;37.65;;;21.60;1.00;;;;;;5053028;28;20036;-67
2022/10/18 11:54:41;;;;;;;48.25;33.92;;;21.60;1.00;;;;;;5053727;28;20013;-67
2022/10/18 11:57:53;;;;;;;49.72;35.47;;;21.70;1.00;;;;;;5041052;28;20064;-67
2022/10/18 12:00:31;;;;;;;45.92;34.63;;;21.70;1.00;;;;;;5038062;28;20037;-67
2022/10/18 12:03:13;;;;;;;45.30;34.42;;;21.80;1.00;;;;;;5053444;28;20556;-67
2022/10/18 12:05:42;;;;;;;48.67;34.47;;;21.80;1.00;;;;;;5052433;28;20505;-66
2022/10/18 12:08:22;;;;;;;44.83;34.25;;;21.90;1.00;;;;;;5052858;28;20017;-67
2022/10/18 12:10:56;;;;;;;45.88;35.70;;;22.00;1.00;;;;;;5060235;28;20493;-67
2022/10/18 12:13:33;;;;;;;46.88;35.92;;;22.00;1.00;;;;;;5044154;28;20041;-67
2022/10/18 12:15:59;;;;;;;45.65;34.85;;;22.10;1.00;;;;;;5051293;28;20549;-67
2022/10/18 12:18:26;;;;;;;44.55;35.05;;;22.00;1.00;;;;;;5052299;28;20089;-67
2022/10/18 12:20:55;;;;;;;44.80;36.33;;;22.10;1.00;;;;;;5052301;28;20466;-67
2022/10/18 12:23:35;;;;;;;43.50;34.38;;;22.20;1.00;;;;;;5052200;28;20091;-67
2022/10/18 12:26:06;;;;;;;44.92;34.30;;;22.30;1.00;;;;;;5048307;28;20036;-68
2022/10/18 12:28:31;;;;;;;41.75;34.47;;;22.20;1.00;;;;;;5053361;28;20021;-67
2022/10/18 12:31:21;;;;;;;45.08;35.22;;;22.40;1.00;;;;;;5058324;28;20152;-67
2022/10/18 12:33:52;;;;;;;47.78;37.20;;;22.40;1.00;;;;;;5045090;28;20079;-67
2022/10/18 12:36:21;;;;;;;45.53;34.47;;;22.40;1.00;;;;;;5049746;28;20044;-67
2022/10/18 12:39:03;;;;;;;44.60;34.55;;;22.40;1.00;;;;;;5044060;28;20382;-67
2022/10/18 12:41:32;;;;;;;46.08;33.60;;;22.30;1.00;;;;;;5051795;28;20025;-67
2022/10/18 12:44:06;;;;;;;42.22;34.40;;;22.50;1.00;;;;;;5049888;28;20108;-67
2022/10/18 12:46:51;;;;;;;43.88;33.60;;;22.50;1.00;;;;;;5065072;28;20033;-67
2022/10/18 12:49:28;;;;;;;38.83;30.17;;;22.70;1.00;;;;;;5033214;28;20029;-67
2022/10/18 12:52:00;;;;;;;40.92;32.50;;;22.80;1.00;;;;;;5048340;28;20156;-67
2022/10/18 12:54:29;;;;;;;40.17;33.05;;;22.70;1.00;;;;;;5041743;28;20484;-67
2022/10/18 12:56:56;;;;;;;40.08;32.50;;;22.80;1.00;;;;;;5041390;28;20045;-67
2022/10/18 12:59:25;;;;;;;42.08;31.50;;;22.70;1.00;;;;;;5048350;28;20025;-67